ΕΜΥ, Εθνική Μετεωρολογική Υπηρεσία - Δελτία Καιρού, Προγνώσεις

ΑΕΡΟΝΑΥΤΙΛΙΑ

GREEK AIRPORTS CODES

LGKJ 050130Z AUTO /////KT //// // ////// 16/11 Q1008 RE//=

EUROPEAN AIRPORTS CODES

EDDB 050120Z 09007KT 3500 -SN BR BKN004 00/00 Q0998 RESN TEMPO1200 -DZ BCFG BKN002=